Owensville, IN (47665)

11:31 AM CDT on August 28, 2014 (GMT -0500)
Rural Princeton | Change Station
CLOSE
Current Station
Personal Weather Station
Location: Princeton, IN
Elevation: 436 ft
Nearby Weather Stations

Elev 436 ft 38.30 °N, 87.59 °W | Updated 35 minutes ago

Clear
Clear
85.7 °F
Feels Like 96 °F
N
3.0
Wind Variable Wind from ESE
Gusts 5.0 mph

Today
High -- | Low -- °F
--% Chance of Precip.
Yesterday
High -- | Low -- °F
Precip. -- in
6:16 AM 7:26 PM
Waxing Crescent, 9% visible
Pressure 30.04 in
Visibility 9.0 miles
Clouds Clear
Heat Index 96 °F
Dew Point 76 °F
Humidity 73%
Rainfall 0.00 in
Snow Depth Not available.
UV 8 out of 12
Pollen 10.40 out of 12
Ozone Good
PM2.5 Moderate
Flu Activity Not available.
METAR KEVV 281554Z 09003KT 9SM CLR 30/23 A3005 RMK AO2 SLP170 T03000233

More Conditions Fewer Conditions

Pressure 30.04 in
Visibility 9.0 miles
Clouds Clear
Heat Index 96 °F
Dew Point 76 °F
Humidity 73%
Rainfall 0.00 in
Snow Depth Not available.
UV 8 out of 12
Pollen 10.40 out of 12
Ozone Good
PM2.5 Moderate
Flu Activity Not available.
METAR KEVV 281554Z 09003KT 9SM CLR 30/23 A3005 RMK AO2 SLP170 T03000233

More Conditions Fewer Conditions

10-Day Weather Forecast

Almanac

Astronomy

Aug. 28, 2014 Rise Set
Actual Time 6:16 AM CDT 7:26 PM CDT
Civil Twilight 5:49 AM CDT 7:53 PM CDT
Nautical Twilight 5:16 AM CDT 8:26 PM CDT
Astronomical Twilight 4:43 AM CDT 8:59 PM CDT
Moon 9:05 AM CDT 8:53 PM CDT
Length of Visible Light 14h 04m
Length of Day
13h 09m
Tomorrow will be 2m 21s shorter.
Waxing Crescent, 9% of the Moon is Illuminated
Today
Waxing Crescent
Sep 2
First Quarter
Sep 8
Full
Sep 15
Last Quarter
Sep 24
New

Today's Extremes

State Highs State Lows

Community

WunderPhotos

Upload Photos

1,748,010 photos uploaded!

Nearby

Air Quality

  Air Quality AQ Index Pollutant
Yesterday Moderate
PM2.5
Yesterday Moderate
OZONE
Current Moderate
PM2.5
Current Good
OZONE
Thursday Unhealthy for Sensitive Groups
PM2.5
Thursday Moderate
OZONE
Friday Moderate
PM2.5
Friday Moderate
OZONE

Snow Depth

Station Depth Elevation
No new snow has been reported.

Earthquake Activity

City Distance Mag. Time & Date
No recent earthquake activity has been reported nearby.
Minimum magnitude displayed is 2.5.

Coastal Water Temperatures

Place Temperature
No Stations Reporting

Nearby Weather Stations